Time;durP1;ratioP1;P1;durP2;ratioP2;P2;SDS_P1;SDS_P2;PMS_P1;PMS_P2;Temp;Humidity;BMP_temperature;BMP_pressure;BME280_temperature;BME280_humidity;BME280_pressure;Samples;Min_cycle;Max_cycle;Signal;HPM_P1;HPM_P2
2022/03/21 05:13:37;;;;;;;30.83;13.88;;;;;;;-4.18;75.09;102777.03;5559693;32;176109;-88
2022/03/21 05:16:40;;;;;;;26.12;14.77;;;;;;;-4.14;74.77;102781.53;5545763;32;35042;-88
2022/03/21 05:19:44;;;;;;;28.15;13.93;;;;;;;-4.08;74.94;102774.97;5545511;32;34958;-86
2022/03/21 05:30:57;;;;;;;30.65;14.65;;;;;;;-3.98;74.95;102775.44;5546272;32;33858;-84
2022/03/21 05:36:17;;;;;;;31.95;15.15;;;;;;;-3.50;76.10;102784.59;5550117;32;34565;-84
2022/03/21 05:39:22;;;;;;;31.70;15.90;;;;;;;-3.40;74.18;102786.81;5546022;32;34054;-84
2022/03/21 05:42:25;;;;;;;33.55;15.63;;;;;;;-3.26;73.73;102790.94;5546482;32;33860;-84
2022/03/21 05:45:28;;;;;;;29.12;15.55;;;;;;;-3.06;72.40;102787.50;5545956;32;34178;-84
2022/03/21 05:51:54;;;;;;;33.22;17.00;;;;;;;-2.81;70.87;102786.91;5546411;32;34610;-85
2022/03/21 05:54:57;;;;;;;32.25;15.85;;;;;;;-2.66;70.48;102793.59;5547772;32;33942;-84
2022/03/21 05:57:59;;;;;;;30.90;15.35;;;;;;;-2.51;70.17;102791.66;5549879;32;34734;-84
2022/03/21 06:01:03;;;;;;;38.55;16.08;;;;;;;-2.30;71.30;102796.03;5551326;32;34260;-85
2022/03/21 06:04:07;;;;;;;26.85;14.55;;;;;;;-1.94;69.80;102797.50;5555864;32;34862;-84
2022/03/21 06:07:11;;;;;;;26.60;15.40;;;;;;;-1.60;70.66;102791.06;5548302;32;35832;-85
2022/03/21 06:10:14;;;;;;;27.70;14.27;;;;;;;-0.32;63.44;102796.63;5552347;32;33907;-85
2022/03/21 06:13:17;;;;;;;27.85;15.35;;;;;;;1.11;54.69;102801.94;5538146;32;34296;-88
2022/03/21 06:16:20;;;;;;;30.17;15.18;;;;;;;1.85;51.68;102800.44;5548752;32;35027;-88
2022/03/21 06:19:23;;;;;;;28.38;15.02;;;;;;;2.96;47.34;102790.78;5556739;32;34912;-89
2022/03/21 06:22:26;;;;;;;31.33;15.30;;;;;;;4.21;44.61;102798.31;5536681;32;34995;-89
2022/03/21 06:25:29;;;;;;;26.77;16.10;;;;;;;7.24;39.78;102785.38;5529331;32;35960;-84
2022/03/21 06:28:33;;;;;;;30.62;16.98;;;;;;;7.58;36.55;102791.63;5544552;32;34064;-85
2022/03/21 06:31:38;;;;;;;27.42;16.10;;;;;;;8.58;34.13;102800.44;5545687;32;34088;-84
2022/03/21 06:34:41;;;;;;;26.62;16.70;;;;;;;10.30;32.43;102795.00;5532063;32;33993;-84
2022/03/21 06:37:44;;;;;;;30.60;17.02;;;;;;;11.10;31.04;102787.94;5538637;32;33626;-84
2022/03/21 06:40:47;;;;;;;28.60;17.87;;;;;;;10.91;29.79;102795.22;5547425;32;33681;-84
2022/03/21 06:43:50;;;;;;;31.58;17.73;;;;;;;9.87;31.76;102788.31;5542989;32;33654;-84
2022/03/21 06:46:53;;;;;;;32.25;19.73;;;;;;;10.29;30.35;102787.91;5546818;32;35174;-84
2022/03/21 06:49:55;;;;;;;28.87;19.67;;;;;;;10.01;30.16;102794.34;5529983;32;34020;-85
2022/03/21 06:53:03;;;;;;;40.22;21.17;;;;;;;9.93;30.93;102796.19;5539490;32;34281;-83
2022/03/21 06:56:06;;;;;;;41.85;22.77;;;;;;;10.27;29.50;102797.69;5530784;32;33588;-83
2022/03/21 06:59:12;;;;;;;38.63;22.15;;;;;;;11.15;28.96;102793.16;5532804;32;32752;-85
2022/03/21 07:02:16;;;;;;;32.63;20.40;;;;;;;10.48;28.57;102804.56;5534247;32;34220;-85
2022/03/21 07:05:20;;;;;;;39.17;19.70;;;;;;;11.91;26.99;102801.81;5538197;32;34300;-82
2022/03/21 07:08:23;;;;;;;29.77;18.37;;;;;;;10.10;28.48;102806.66;5527541;32;33513;-82
2022/03/21 07:11:26;;;;;;;33.10;18.75;;;;;;;8.00;32.13;102807.53;5534754;32;34540;-83
2022/03/21 07:14:28;;;;;;;33.60;20.00;;;;;;;9.33;31.03;102802.78;5529075;32;34442;-83
2022/03/21 07:17:32;;;;;;;28.17;19.23;;;;;;;9.81;31.27;102803.34;5541768;32;34143;-83
2022/03/21 07:20:34;;;;;;;31.02;20.08;;;;;;;10.75;29.68;102797.19;5535085;32;34697;-86
2022/03/21 07:23:37;;;;;;;31.17;19.80;;;;;;;11.75;28.41;102795.84;5534682;32;34629;-83
2022/03/21 07:26:40;;;;;;;29.77;18.92;;;;;;;12.40;27.58;102808.09;5533586;32;34012;-84
2022/03/21 07:29:43;;;;;;;27.62;19.00;;;;;;;12.25;27.73;102802.16;5547768;32;33566;-85
2022/03/21 07:32:46;;;;;;;28.38;17.02;;;;;;;13.40;26.43;102808.72;5539628;32;33513;-84
2022/03/21 07:35:50;;;;;;;22.70;15.93;;;;;;;14.27;25.14;102810.19;5535591;32;35238;-85
2022/03/21 07:38:53;;;;;;;25.77;16.65;;;;;;;12.46;25.21;102815.06;5534047;32;34699;-86
2022/03/21 07:42:00;;;;;;;24.30;17.02;;;;;;;14.38;23.79;102814.38;5538147;32;34757;-86
2022/03/21 07:48:27;;;;;;;21.70;15.73;;;;;;;12.98;23.80;102815.81;5538260;32;34350;-86
2022/03/21 07:51:30;;;;;;;24.73;16.48;;;;;;;17.34;20.47;102804.75;5550284;32;34093;-85
2022/03/21 07:54:33;;;;;;;23.35;16.27;;;;;;;19.52;18.07;102806.03;5534837;32;34629;-84
2022/03/21 07:57:36;;;;;;;29.20;15.23;;;;;;;20.26;17.10;102801.41;5532414;32;34758;-85
2022/03/21 08:00:42;;;;;;;22.33;14.95;;;;;;;19.76;15.96;102803.91;5530182;32;33740;-86
2022/03/21 08:03:46;;;;;;;21.70;15.50;;;;;;;23.81;13.91;102801.19;5534697;32;33856;-86
2022/03/21 08:06:48;;;;;;;23.10;15.52;;;;;;;24.13;13.85;102803.53;5528147;32;32851;-86
2022/03/21 08:09:51;;;;;;;19.52;14.50;;;;;;;24.31;12.77;102806.81;5522232;32;34077;-87
2022/03/21 08:12:55;;;;;;;17.67;14.45;;;;;;;25.87;11.56;102795.53;5520093;32;34358;-90
2022/03/21 08:15:59;;;;;;;22.10;15.23;;;;;;;24.06;12.38;102799.47;5525182;32;33937;-91
2022/03/21 08:19:07;;;;;;;20.30;15.13;;;;;;;24.41;12.95;102803.44;5555103;32;33800;-85
2022/03/21 08:22:10;;;;;;;19.75;14.38;;;;;;;24.27;12.28;102791.72;5536460;32;34199;-87
2022/03/21 08:25:16;;;;;;;22.52;14.55;;;;;;;25.15;12.27;102787.25;5534871;32;34010;-87
2022/03/21 08:28:19;;;;;;;20.70;15.48;;;;;;;22.60;12.96;102789.09;5528771;32;34945;-85
2022/03/21 08:31:21;;;;;;;20.00;14.93;;;;;;;20.83;14.46;102788.53;5543901;32;33678;-85
2022/03/21 08:34:25;;;;;;;21.48;16.10;;;;;;;19.75;14.84;102783.31;5548156;32;33939;-85
2022/03/21 08:37:28;;;;;;;24.05;15.68;;;;;;;20.85;14.97;102786.66;5557827;32;34339;-85
2022/03/21 08:40:31;;;;;;;22.92;15.82;;;;;;;17.73;16.82;102785.28;5556978;32;35156;-87
2022/03/21 08:43:34;;;;;;;23.45;16.33;;;;;;;15.71;18.90;102781.97;5560123;32;34835;-85
2022/03/21 08:46:37;;;;;;;29.17;16.55;;;;;;;17.07;18.62;102780.78;5557773;32;34247;-86
2022/03/21 08:49:39;;;;;;;25.55;17.10;;;;;;;16.29;18.48;102781.81;5538695;32;35254;-86
2022/03/21 08:52:42;;;;;;;26.20;16.92;;;;;;;16.56;18.75;102773.69;5535058;32;33675;-84
2022/03/21 08:55:45;;;;;;;23.73;16.60;;;;;;;16.03;18.93;102778.25;5542472;32;33416;-85
2022/03/21 08:58:47;;;;;;;26.23;17.05;;;;;;;13.63;21.00;102770.88;5543153;32;35365;-85
2022/03/21 09:01:52;;;;;;;23.65;16.50;;;;;;;14.43;20.74;102772.37;5539439;32;33595;-84
2022/03/21 09:04:55;;;;;;;24.23;16.33;;;;;;;15.76;19.97;102766.63;5540760;32;34162;-85
2022/03/21 09:07:57;;;;;;;29.67;16.73;;;;;;;16.14;19.37;102766.28;5544525;32;35271;-84
2022/03/21 09:11:04;;;;;;;24.65;16.62;;;;;;;15.28;20.20;102754.81;5544676;32;34316;-84
2022/03/21 09:14:08;;;;;;;24.80;17.33;;;;;;;15.08;20.49;102750.94;5514802;32;34038;-84
2022/03/21 09:17:13;;;;;;;25.42;16.12;;;;;;;15.49;19.70;102747.91;5535394;32;34421;-85
2022/03/21 09:20:16;;;;;;;26.33;16.70;;;;;;;15.54;19.48;102745.94;5539163;32;34814;-84
2022/03/21 09:23:19;;;;;;;22.08;16.12;;;;;;;14.46;20.71;102740.28;5534672;32;34957;-84
2022/03/21 09:26:22;;;;;;;21.05;15.55;;;;;;;13.66;22.85;102741.47;5515902;32;33932;-84
2022/03/21 09:29:25;;;;;;;26.42;16.40;;;;;;;14.13;20.54;102743.81;5537543;32;34983;-84
2022/03/21 09:32:28;;;;;;;29.35;17.10;;;;;;;14.45;21.52;102730.50;5533056;32;34023;-85
2022/03/21 09:35:31;;;;;;;24.02;15.82;;;;;;;15.58;19.21;102744.03;5534109;32;33926;-85
2022/03/21 09:38:36;;;;;;;30.00;13.55;;;;;;;14.99;19.92;102746.75;5534304;32;35103;-84
2022/03/21 09:41:39;;;;;;;18.08;12.55;;;;;;;14.78;18.87;102737.63;5534658;32;34784;-85
2022/03/21 09:44:42;;;;;;;21.02;13.27;;;;;;;14.47;18.61;102735.78;5547583;32;34058;-84
2022/03/21 09:51:10;;;;;;;22.42;14.10;;;;;;;14.58;18.07;102724.81;5526057;32;34952;-85
2022/03/21 09:54:13;;;;;;;20.75;13.32;;;;;;;15.42;17.83;102738.31;5531800;32;34327;-85
2022/03/21 09:57:17;;;;;;;17.75;12.93;;;;;;;14.75;18.32;102722.56;5528541;32;33751;-85
2022/03/21 10:00:20;;;;;;;20.55;13.65;;;;;;;14.26;18.40;102735.47;5536196;32;34095;-85
2022/03/21 10:03:23;;;;;;;19.25;13.75;;;;;;;13.73;19.85;102729.72;5549347;32;34226;-85
2022/03/21 10:06:32;;;;;;;23.70;14.27;;;;;;;14.35;19.30;102716.56;5551684;32;34755;-85
2022/03/21 10:09:35;;;;;;;17.55;12.85;;;;;;;16.09;17.30;102715.56;5541338;32;35152;-89
2022/03/21 10:12:39;;;;;;;20.27;14.05;;;;;;;15.39;17.64;102717.03;5553382;32;34089;-89
2022/03/21 10:15:41;;;;;;;18.33;13.10;;;;;;;14.02;18.39;102711.22;5540032;32;34788;-85
2022/03/21 10:18:51;;;;;;;20.05;12.77;;;;;;;15.04;18.64;102706.56;5537248;32;34030;-84
2022/03/21 10:22:06;;;;;;;19.87;13.73;;;;;;;15.18;17.70;102698.97;5536088;32;33858;-84
2022/03/21 10:25:17;;;;;;;25.02;14.27;;;;;;;15.32;18.03;102701.19;5523484;32;34696;-84
2022/03/21 10:28:34;;;;;;;19.23;13.38;;;;;;;15.97;17.33;102687.44;5536635;32;33910;-85
2022/03/21 10:31:44;;;;;;;19.35;13.23;;;;;;;16.44;16.87;102685.72;5534914;32;34025;-85
2022/03/21 10:35:00;;;;;;;15.98;12.18;;;;;;;16.42;16.33;102688.50;5536828;32;34003;-85
2022/03/21 10:38:04;;;;;;;17.27;12.32;;;;;;;18.88;14.49;102679.03;5534209;32;34388;-85
2022/03/21 10:41:09;;;;;;;20.83;14.13;;;;;;;18.60;14.26;102686.59;5536507;32;34386;-85
2022/03/21 10:44:11;;;;;;;19.42;13.50;;;;;;;18.86;14.66;102677.28;5535442;32;34586;-85
2022/03/21 10:47:14;;;;;;;20.80;14.00;;;;;;;16.29;16.67;102674.66;5543962;32;34220;-85
2022/03/21 10:50:33;;;;;;;22.75;14.87;;;;;;;15.98;16.94;102673.13;5537204;32;34359;-85
2022/03/21 10:53:40;;;;;;;25.75;14.15;;;;;;;15.71;18.04;102661.56;5554186;32;34151;-84
2022/03/21 10:56:43;;;;;;;17.50;13.60;;;;;;;16.07;17.57;102654.97;5542648;32;34256;-84
2022/03/21 10:59:46;;;;;;;20.05;14.20;;;;;;;16.81;16.95;102643.25;5531253;32;33989;-85
2022/03/21 11:03:16;;;;;;;20.77;13.95;;;;;;;17.02;16.36;102645.97;5543560;32;34298;-86
2022/03/21 11:06:19;;;;;;;21.35;14.57;;;;;;;17.43;16.05;102640.72;5534085;32;34375;-88
2022/03/21 11:09:22;;;;;;;21.00;14.38;;;;;;;18.73;14.90;102633.13;5521918;32;34123;-85
2022/03/21 11:12:25;;;;;;;18.98;14.27;;;;;;;21.65;13.27;102629.09;5531881;32;34586;-86
2022/03/21 11:15:35;;;;;;;16.67;13.65;;;;;;;21.64;12.42;102617.44;5535432;32;33971;-85
2022/03/21 11:18:39;;;;;;;18.92;14.20;;;;;;;20.40;13.83;102628.19;5535769;32;34936;-85
2022/03/21 11:21:43;;;;;;;18.92;14.18;;;;;;;16.81;15.86;102619.13;5560535;32;33872;-86
2022/03/21 11:24:45;;;;;;;17.35;14.07;;;;;;;16.32;17.16;102613.88;5548762;32;34339;-87
2022/03/21 11:28:17;;;;;;;17.70;13.35;;;;;;;15.84;17.24;102621.88;5542005;32;34101;-85
2022/03/21 11:31:44;;;;;;;16.12;11.57;;;;;;;15.39;17.24;102623.44;5550132;32;34720;-85
2022/03/21 11:34:59;;;;;;;16.75;11.32;;;;;;;14.98;17.27;102621.22;5531805;32;34324;-85
2022/03/21 11:38:25;;;;;;;15.82;10.60;;;;;;;17.12;15.50;102604.50;5532529;32;34582;-85
2022/03/21 11:41:31;;;;;;;13.73;10.18;;;;;;;15.34;16.54;102605.75;5536559;32;33823;-85
2022/03/21 11:44:35;;;;;;;13.35;10.07;;;;;;;14.73;17.62;102593.44;5532535;32;34932;-85
2022/03/21 11:47:38;;;;;;;15.55;10.60;;;;;;;14.78;17.66;102585.34;5543242;32;33857;-84
2022/03/21 11:50:43;;;;;;;14.02;10.40;;;;;;;13.94;18.16;102596.69;5537098;32;33559;-85
2022/03/21 11:53:49;;;;;;;16.08;10.15;;;;;;;14.06;17.79;102594.56;5540724;32;33991;-84
2022/03/21 11:56:54;;;;;;;13.05;9.70;;;;;;;13.59;18.11;102593.22;5538106;32;33808;-84
2022/03/21 11:59:58;;;;;;;15.85;10.18;;;;;;;13.70;17.91;102583.13;5539010;32;33594;-83
2022/03/21 12:03:01;;;;;;;14.73;10.65;;;;;;;13.67;17.58;102577.00;5559168;32;34697;-85
2022/03/21 12:06:27;;;;;;;14.87;9.93;;;;;;;13.22;18.16;102573.69;5540849;32;35431;-88
2022/03/21 12:09:49;;;;;;;14.57;10.65;;;;;;;12.97;18.24;102563.66;5539190;32;34489;-84
2022/03/21 12:12:53;;;;;;;13.75;10.23;;;;;;;13.08;18.63;102566.06;5536934;32;33922;-84
2022/03/21 12:15:59;;;;;;;14.50;10.07;;;;;;;12.89;18.96;102561.19;5535768;32;34413;-84
2022/03/21 12:19:03;;;;;;;15.00;10.68;;;;;;;12.83;18.82;102558.69;5529543;32;34726;-84
2022/03/21 12:22:28;;;;;;;13.70;9.70;;;;;;;12.97;18.56;102550.34;5533654;32;34469;-83
2022/03/21 12:25:31;;;;;;;17.05;9.88;;;;;;;12.56;18.66;102539.78;5530854;32;35294;-84
2022/03/21 12:32:24;;;;;;;19.58;10.60;;;;;;;12.80;18.68;102529.44;5515913;32;33827;-85
2022/03/21 12:35:35;;;;;;;17.10;11.52;;;;;;;12.76;18.79;102525.09;5527256;32;34597;-85
2022/03/21 12:38:39;;;;;;;13.10;10.82;;;;;;;12.78;18.81;102523.28;5535591;32;33678;-85
2022/03/21 12:41:44;;;;;;;18.85;11.43;;;;;;;12.61;18.77;102519.25;5532134;32;34319;-84
2022/03/21 12:44:47;;;;;;;18.27;11.35;;;;;;;12.35;19.31;102514.53;5533035;32;34590;-84
2022/03/21 12:47:50;;;;;;;15.02;12.13;;;;;;;12.39;19.61;102525.06;5514258;32;33865;-84
2022/03/21 12:50:53;;;;;;;16.73;11.95;;;;;;;12.51;19.25;102512.38;5528476;32;34062;-88
2022/03/21 12:54:00;;;;;;;16.92;11.32;;;;;;;12.63;19.22;102508.56;5533389;32;33038;-88
2022/03/21 12:57:05;;;;;;;17.55;10.77;;;;;;;12.96;19.25;102495.31;5535592;32;34489;-86
2022/03/21 13:00:18;;;;;;;16.02;10.43;;;;;;;12.76;19.41;102494.03;5538409;32;33948;-84
2022/03/21 13:03:23;;;;;;;15.45;10.85;;;;;;;12.63;18.97;102506.75;5532461;32;34550;-84
2022/03/21 13:13:12;;;;;;;14.65;10.15;;;;;;;12.73;18.44;102490.56;5531989;32;35380;-84
2022/03/21 14:58:23;;;;;;;10.52;8.70;;;;;;;12.35;17.09;102400.09;843711;30;20360;-89
2022/03/21 15:01:27;;;;;;;11.70;8.90;;;;;;;12.16;17.10;102395.22;5553212;32;32153;-89
2022/03/21 15:04:31;;;;;;;12.35;8.60;;;;;;;12.30;17.12;102402.87;5553725;32;34337;-88
2022/03/21 15:07:39;;;;;;;12.35;8.82;;;;;;;12.45;17.08;102396.28;5645564;26;34402;-90
2022/03/21 15:21:52;;;;;;;13.52;8.80;;;;;;;12.38;17.50;102386.72;5491272;32;20101;-89
2022/03/21 15:24:55;;;;;;;13.80;9.07;;;;;;;12.54;17.73;102380.06;5496060;32;33299;-87
2022/03/21 15:27:58;;;;;;;19.75;9.10;;;;;;;12.26;17.50;102370.16;5499213;32;34546;-89
2022/03/21 15:31:02;;;;;;;13.00;8.70;;;;;;;12.06;17.70;102373.28;5501089;32;33955;-88
2022/03/21 15:34:06;;;;;;;13.52;8.30;;;;;;;11.99;17.66;102377.88;5495855;32;33898;-88
2022/03/21 15:43:52;;;;;;;12.02;8.65;;;;;;;11.92;17.74;102372.72;5493296;32;33849;-88
2022/03/21 15:46:55;;;;;;;14.40;8.82;;;;;;;11.84;17.92;102364.91;5493630;32;34497;-88
2022/03/21 15:49:58;;;;;;;11.93;8.77;;;;;;;11.95;17.96;102364.66;5489887;32;35032;-88
2022/03/21 15:53:04;;;;;;;14.00;8.90;;;;;;;11.72;18.06;102379.37;5494539;32;33834;-88
2022/03/21 15:56:07;;;;;;;11.45;8.48;;;;;;;11.78;17.56;102376.56;5475645;32;33647;-88
2022/03/21 15:59:10;;;;;;;12.88;8.98;;;;;;;11.73;19.33;102381.97;5478334;32;35212;-88
2022/03/21 16:02:14;;;;;;;13.10;8.45;;;;;;;11.81;17.58;102373.81;5474554;32;33878;-87
2022/03/21 16:05:17;;;;;;;12.98;9.10;;;;;;;11.58;17.81;102377.88;5484414;32;34447;-88
2022/03/21 16:08:20;;;;;;;13.20;9.13;;;;;;;11.53;18.05;102374.47;5477618;32;34209;-88
2022/03/21 16:11:27;;;;;;;12.60;8.70;;;;;;;11.41;18.07;102380.91;5474320;32;35447;-87
2022/03/21 16:14:30;;;;;;;10.90;8.52;;;;;;;11.40;18.05;102376.50;5474483;32;34123;-86
2022/03/21 16:17:36;;;;;;;13.02;9.18;;;;;;;11.29;18.23;102382.03;5475395;32;33986;-86
2022/03/21 16:20:40;;;;;;;13.98;9.07;;;;;;;11.21;18.44;102383.97;5475568;32;34580;-86
2022/03/21 16:23:43;;;;;;;16.48;9.10;;;;;;;11.32;18.55;102386.41;5474811;32;33780;-87
2022/03/21 16:26:46;;;;;;;15.90;9.77;;;;;;;11.07;18.86;102376.28;5476584;32;33996;-87
2022/03/21 16:29:49;;;;;;;14.15;9.63;;;;;;;10.98;18.88;102389.72;5480005;32;34783;-87
2022/03/21 16:32:51;;;;;;;14.98;9.65;;;;;;;10.80;19.28;102388.31;5474951;32;34455;-87
2022/03/21 16:35:55;;;;;;;14.13;9.30;;;;;;;10.73;19.48;102388.44;5474478;32;35093;-90
2022/03/21 16:38:59;;;;;;;14.30;9.98;;;;;;;10.73;19.67;102382.22;5475540;32;33963;-90
2022/03/21 16:42:20;;;;;;;13.00;9.40;;;;;;;10.68;19.87;102389.41;5475336;32;34488;-88
2022/03/21 16:45:23;;;;;;;14.60;9.80;;;;;;;10.50;20.03;102380.84;5473572;32;34263;-88
2022/03/21 16:48:27;;;;;;;14.90;9.70;;;;;;;10.29;20.41;102382.03;5473906;32;34624;-88
2022/03/21 16:51:29;;;;;;;14.65;9.85;;;;;;;10.08;20.76;102384.16;5477467;32;34129;-88
2022/03/21 16:54:33;;;;;;;14.63;9.93;;;;;;;9.93;20.95;102388.78;5473333;32;33852;-88
